KBFF/BFF METAR and TAF weather

Enter ICAO airport designator
Station Type Date Time Source
KBFF METAR 2020/01/26 18:53 UTC NOAA

KBFF 261853Z AUTO 30011KT 10SM CLR 09/M03 A3002 RMK AO2 SLP169 T00891033


Station Type Date Time Source
KBFF Decoded METAR 2020/01/26 18:53 UTC NOAA

SCOTTSBLUFF HEILIG FIELD, NE, United States (KBFF) 41-52N 103-36W 1203M
Jan 26, 2020 - 01:53 PM EST / 2020.01.26 1853 UTC
Wind: from the WNW (300 degrees) at 13 MPH (11 KT):0
Visibility: 10 mile(s):0
Sky conditions: clear
Temperature: 48.0 F (8.9 C)
Dew Point: 26.1 F (-3.3 C)
Relative Humidity: 42%
Pressure (altimeter): 30.02 in. Hg (1016 hPa)
ob: KBFF 261853Z AUTO 30011KT 10SM CLR 09/M03 A3002 RMK AO2 SLP169 T00891033
cycle: 19

Station Type Date Time Source
KBFF TAF 2020/01/26 18:24 UTC NOAA

TAF KBFF 261723Z 2618/2718 30012KT P6SM SKC
FM270000 31006KT P6SM SCT150
FM271200 VRB04KT P6SM BKN080
FM271600 12006KT P6SM VCSH BKN045

Example: see airport list